Time;durP1;ratioP1;P1;durP2;ratioP2;P2;SDS_P1;SDS_P2;PMS_P1;PMS_P2;Temp;Humidity;BMP_temperature;BMP_pressure;BME280_temperature;BME280_humidity;BME280_pressure;Samples;Min_cycle;Max_cycle;Signal;HPM_P1;HPM_P2
2022/09/14 00:01:27;;;;;;;;;;;20.00;99.90;;;;;;5095358;28;19912;-83
2022/09/14 00:03:54;;;;;;;;;;;20.00;99.90;;;;;;5095402;28;20390;-84
2022/09/14 00:06:19;;;;;;;;;;;20.00;99.90;;;;;;5094997;28;19950;-83
2022/09/14 00:08:48;;;;;;;;;;;20.00;99.90;;;;;;5095054;28;19954;-82
2022/09/14 00:11:13;;;;;;;;;;;20.00;99.90;;;;;;5095327;28;19908;-83
2022/09/14 00:13:40;;;;;;;;;;;20.00;99.90;;;;;;5096945;28;19927;-83
2022/09/14 00:16:07;;;;;;;;;;;20.00;99.90;;;;;;5097489;28;20375;-83
2022/09/14 00:18:33;;;;;;;;;;;20.00;99.90;;;;;;5097941;28;19916;-83
2022/09/14 00:21:03;;;;;;;;;;;20.00;99.90;;;;;;5097621;28;19915;-83
2022/09/14 00:23:29;;;;;;;;;;;20.10;99.90;;;;;;5097271;28;19908;-83
2022/09/14 00:25:54;;;;;;;;;;;20.10;99.90;;;;;;5097715;28;19908;-83
2022/09/14 00:28:20;;;;;;;;;;;20.00;99.90;;;;;;5097875;28;19908;-82
2022/09/14 00:30:46;;;;;;;;;;;20.10;99.90;;;;;;5097660;28;20329;-82
2022/09/14 00:33:12;;;;;;;;;;;20.10;99.90;;;;;;5097250;28;19912;-83
2022/09/14 00:35:38;;;;;;;;;;;20.10;99.90;;;;;;5097242;28;20371;-83
2022/09/14 00:38:03;;;;;;;;;;;20.10;99.90;;;;;;5097761;28;19915;-83
2022/09/14 00:40:29;;;;;;;;;;;20.00;99.90;;;;;;5097049;28;19908;-83
2022/09/14 00:42:54;;;;;;;;;;;20.00;99.90;;;;;;5096464;28;20362;-82
2022/09/14 00:45:21;;;;;;;;;;;20.00;99.90;;;;;;5098174;28;19908;-83
2022/09/14 00:47:48;;;;;;;;;;;20.00;99.90;;;;;;5097558;28;19915;-83
2022/09/14 00:50:14;;;;;;;;;;;20.00;99.90;;;;;;5099306;28;20107;-83
2022/09/14 00:52:41;;;;;;;;;;;19.90;99.90;;;;;;5097456;28;19944;-82
2022/09/14 00:55:11;;;;;;;;;;;19.90;99.90;;;;;;5096845;28;19912;-82
2022/09/14 00:57:39;;;;;;;;;;;19.90;99.90;;;;;;5096282;28;20432;-82
2022/09/14 01:00:07;;;;;;;;;;;19.80;99.90;;;;;;5096556;28;19964;-83
2022/09/14 01:02:33;;;;;;;;;;;19.80;99.90;;;;;;5096317;28;19908;-83
2022/09/14 01:04:59;;;;;;;;;;;19.70;99.90;;;;;;5096221;28;19954;-83
2022/09/14 01:07:27;;;;;;;;;;;19.80;99.90;;;;;;5095711;28;19935;-82
2022/09/14 01:10:07;;;;;;;;;;;19.70;99.90;;;;;;5096076;28;19908;-82
2022/09/14 01:12:59;;;;;;;;;;;19.70;99.90;;;;;;5095933;28;19983;-83
2022/09/14 01:15:37;;;;;;;;;;;19.70;99.90;;;;;;5092093;28;20383;-82
2022/09/14 01:18:08;;;;;;;;;;;19.70;99.90;;;;;;5096028;28;20012;-83
2022/09/14 01:20:34;;;;;;;;;;;19.70;99.90;;;;;;5095982;28;19919;-83
2022/09/14 01:23:05;;;;;;;;;;;19.70;99.90;;;;;;5095463;28;20333;-83
2022/09/14 01:25:49;;;;;;;;;;;19.60;99.90;;;;;;5095627;28;19908;-82
2022/09/14 01:28:21;;;;;;;;;;;19.60;99.90;;;;;;5095478;28;19909;-82
2022/09/14 01:30:49;;;;;;;;;;;19.60;99.90;;;;;;5095249;28;20012;-82
2022/09/14 01:33:18;;;;;;;;;;;19.60;99.90;;;;;;5095270;28;19912;-82
2022/09/14 01:35:51;;;;;;;;;;;19.50;99.90;;;;;;5094972;28;20023;-82
2022/09/14 01:38:31;;;;;;;;;;;19.50;99.90;;;;;;5095302;28;19957;-82
2022/09/14 01:40:58;;;;;;;;;;;19.50;99.90;;;;;;5095597;28;19968;-83
2022/09/14 01:43:26;;;;;;;;;;;19.40;99.90;;;;;;5094722;28;19958;-83
2022/09/14 01:45:57;;;;;;;;;;;19.40;99.90;;;;;;5095154;28;20006;-82
2022/09/14 01:48:25;;;;;;;;;;;19.40;99.90;;;;;;5095579;28;19916;-82
2022/09/14 01:50:53;;;;;;;;;;;19.40;99.90;;;;;;5094847;28;19920;-83
2022/09/14 01:53:18;;;;;;;;;;;19.40;99.90;;;;;;5094874;28;20371;-83
2022/09/14 01:55:50;;;;;;;;;;;19.40;99.90;;;;;;5093516;28;19950;-83
2022/09/14 01:58:30;;;;;;;;;;;19.40;99.90;;;;;;5093328;28;19908;-82
2022/09/14 02:00:56;;;;;;;;;;;19.40;99.90;;;;;;5093016;28;19957;-82
2022/09/14 02:03:25;;;;;;;;;;;19.40;99.90;;;;;;5093024;28;19908;-83
2022/09/14 02:05:59;;;;;;;;;;;19.40;99.90;;;;;;5092112;28;19908;-83
2022/09/14 02:08:28;;;;;;;;;;;19.40;99.90;;;;;;5092357;28;19916;-82
2022/09/14 02:10:54;;;;;;;;;;;19.40;99.90;;;;;;5091988;28;20006;-82
2022/09/14 02:13:20;;;;;;;;;;;19.40;99.90;;;;;;5092089;28;20027;-82
2022/09/14 02:15:45;;;;;;;;;;;19.30;99.90;;;;;;5092038;28;20006;-82
2022/09/14 02:18:11;;;;;;;;;;;19.30;99.90;;;;;;5091883;28;19908;-82
2022/09/14 02:20:40;;;;;;;;;;;19.30;99.90;;;;;;5091918;28;20002;-82
2022/09/14 02:23:05;;;;;;;;;;;19.30;99.90;;;;;;5091895;28;19970;-82
2022/09/14 02:25:31;;;;;;;;;;;19.30;99.90;;;;;;5092033;28;19912;-82
2022/09/14 02:27:57;;;;;;;;;;;19.20;99.90;;;;;;5091713;28;19915;-82
2022/09/14 02:30:22;;;;;;;;;;;19.20;99.90;;;;;;5092353;28;19908;-82
2022/09/14 02:32:48;;;;;;;;;;;19.20;99.90;;;;;;5092063;28;20042;-81
2022/09/14 02:35:17;;;;;;;;;;;19.20;99.90;;;;;;5093487;28;19916;-81
2022/09/14 02:37:54;;;;;;;;;;;19.20;99.90;;;;;;5091720;28;19908;-82
2022/09/14 02:40:26;;;;;;;;;;;19.20;99.90;;;;;;5091877;28;19908;-81
2022/09/14 02:42:52;;;;;;;;;;;19.10;99.90;;;;;;5091482;28;19946;-81
2022/09/14 02:45:25;;;;;;;;;;;19.10;99.90;;;;;;5091657;28;19912;-81
2022/09/14 02:48:03;;;;;;;;;;;19.10;99.90;;;;;;5091649;28;19908;-81
2022/09/14 02:50:52;;;;;;;;;;;19.10;99.90;;;;;;5091856;28;19908;-81
2022/09/14 02:53:21;;;;;;;;;;;19.10;99.90;;;;;;5053627;28;19912;-82
2022/09/14 02:55:50;;;;;;;;;;;19.10;99.90;;;;;;5091295;28;20282;-82
2022/09/14 02:58:15;;;;;;;;;;;19.10;99.90;;;;;;5091390;28;20283;-81
2022/09/14 03:00:42;;;;;;;;;;;19.10;99.90;;;;;;5091482;28;19912;-82
2022/09/14 03:03:09;;;;;;;;;;;19.00;99.90;;;;;;5091461;28;20291;-81
2022/09/14 03:05:35;;;;;;;;;;;19.10;99.90;;;;;;5091710;28;20404;-81
2022/09/14 03:08:01;;;;;;;;;;;19.00;99.90;;;;;;5094899;28;19955;-81
2022/09/14 03:10:27;;;;;;;;;;;19.00;99.90;;;;;;5095448;28;19908;-81
2022/09/14 03:12:53;;;;;;;;;;;19.10;99.90;;;;;;5095492;28;19922;-82
2022/09/14 03:15:19;;;;;;;;;;;19.00;99.90;;;;;;5096420;28;19914;-81
2022/09/14 03:17:48;;;;;;;;;;;19.00;99.90;;;;;;5095815;28;20364;-82
2022/09/14 03:20:15;;;;;;;;;;;19.00;99.90;;;;;;5096409;28;19912;-82
2022/09/14 03:22:40;;;;;;;;;;;19.00;99.90;;;;;;5096178;28;19908;-82
2022/09/14 03:25:06;;;;;;;;;;;18.90;99.90;;;;;;5096197;28;20424;-82
2022/09/14 03:27:31;;;;;;;;;;;19.00;99.90;;;;;;5095582;28;20367;-81
2022/09/14 03:29:57;;;;;;;;;;;18.90;99.90;;;;;;5095857;28;19908;-82
2022/09/14 03:32:23;;;;;;;;;;;18.90;99.90;;;;;;5095814;28;19913;-82
2022/09/14 03:34:48;;;;;;;;;;;18.90;99.90;;;;;;5095571;28;19995;-82
2022/09/14 03:37:14;;;;;;;;;;;18.90;99.90;;;;;;5095654;28;19919;-82
2022/09/14 03:39:39;;;;;;;;;;;18.90;99.90;;;;;;5095667;28;19926;-81
2022/09/14 03:42:05;;;;;;;;;;;18.90;99.90;;;;;;5095708;28;20279;-81
2022/09/14 03:44:30;;;;;;;;;;;18.90;99.90;;;;;;5096587;28;19941;-83
2022/09/14 03:46:56;;;;;;;;;;;18.90;99.90;;;;;;5094972;28;19970;-81
2022/09/14 03:49:21;;;;;;;;;;;18.90;99.90;;;;;;5095351;28;20264;-82
2022/09/14 03:51:47;;;;;;;;;;;18.90;99.90;;;;;;5095468;28;19908;-82
2022/09/14 03:54:12;;;;;;;;;;;18.90;99.90;;;;;;5095207;28;19912;-82
2022/09/14 03:56:38;;;;;;;;;;;18.90;99.90;;;;;;5095259;28;19915;-82
2022/09/14 03:59:03;;;;;;;;;;;18.90;99.90;;;;;;5095549;28;20019;-82
2022/09/14 04:01:31;;;;;;;;;;;18.90;99.90;;;;;;5095167;28;19955;-82
2022/09/14 04:03:57;;;;;;;;;;;18.90;99.90;;;;;;5095082;28;20436;-82
2022/09/14 04:06:22;;;;;;;;;;;19.00;99.90;;;;;;5094137;28;20070;-82
2022/09/14 04:08:48;;;;;;;;;;;19.00;99.90;;;;;;5094308;28;19963;-82
2022/09/14 04:11:13;;;;;;;;;;;19.00;99.90;;;;;;5094513;28;20024;-82
2022/09/14 04:13:39;;;;;;;;;;;19.00;99.90;;;;;;5094309;28;19919;-81
2022/09/14 04:16:08;;;;;;;;;;;19.00;99.90;;;;;;5093829;28;19965;-81
2022/09/14 04:18:33;;;;;;;;;;;19.00;99.90;;;;;;5092770;28;19915;-82
2022/09/14 04:21:05;;;;;;;;;;;19.00;99.90;;;;;;5094157;28;19908;-82
2022/09/14 04:23:31;;;;;;;;;;;19.00;99.90;;;;;;5094182;28;19915;-82
2022/09/14 04:25:56;;;;;;;;;;;19.00;99.90;;;;;;5093622;28;20347;-82
2022/09/14 04:28:22;;;;;;;;;;;19.00;99.90;;;;;;5093888;28;19916;-82
2022/09/14 04:30:55;;;;;;;;;;;19.00;99.90;;;;;;5094005;28;19908;-81
2022/09/14 04:33:20;;;;;;;;;;;19.00;99.90;;;;;;5093847;28;20374;-82
2022/09/14 04:35:54;;;;;;;;;;;19.00;99.90;;;;;;5093668;28;19908;-82
2022/09/14 04:38:19;;;;;;;;;;;19.10;99.90;;;;;;5093761;28;20386;-82
2022/09/14 04:40:45;;;;;;;;;;;19.10;99.90;;;;;;5093828;28;19908;-82
2022/09/14 04:43:10;;;;;;;;;;;19.00;99.90;;;;;;5093593;28;19908;-82
2022/09/14 04:45:36;;;;;;;;;;;19.10;99.90;;;;;;5093550;28;19976;-82
2022/09/14 04:48:01;;;;;;;;;;;19.10;99.90;;;;;;5093425;28;19995;-82
2022/09/14 04:50:27;;;;;;;;;;;19.00;99.90;;;;;;5093450;28;19908;-82
2022/09/14 04:52:52;;;;;;;;;;;19.00;99.90;;;;;;5093705;28;20586;-82
2022/09/14 04:55:18;;;;;;;;;;;19.00;99.90;;;;;;5093261;28;20422;-82
2022/09/14 04:57:44;;;;;;;;;;;19.00;99.90;;;;;;5093216;28;19970;-82
2022/09/14 05:00:09;;;;;;;;;;;19.10;99.90;;;;;;5093670;28;19974;-82
2022/09/14 05:02:38;;;;;;;;;;;19.00;99.90;;;;;;5093203;28;19993;-82
2022/09/14 05:05:04;;;;;;;;;;;19.10;99.90;;;;;;5093126;28;19923;-82
2022/09/14 05:07:29;;;;;;;;;;;19.10;99.90;;;;;;5092962;28;19912;-82
2022/09/14 05:09:55;;;;;;;;;;;19.00;99.90;;;;;;5108240;22;19958;-85
2022/09/14 05:12:21;;;;;;;;;;;19.10;99.90;;;;;;5093101;28;20000;-82
2022/09/14 05:14:46;;;;;;;;;;;19.10;99.90;;;;;;5110221;28;20311;-82
2022/09/14 05:17:12;;;;;;;;;;;19.00;99.90;;;;;;5081895;28;19945;-82
2022/09/14 05:19:38;;;;;;;;;;;19.00;99.90;;;;;;5073598;28;19908;-82
2022/09/14 05:22:03;;;;;;;;;;;19.00;99.90;;;;;;5073362;28;20311;-82
2022/09/14 05:24:29;;;;;;;;;;;19.00;99.90;;;;;;5072901;28;20371;-82
2022/09/14 05:26:55;;;;;;;;;;;18.90;99.90;;;;;;5072231;28;20303;-82
2022/09/14 05:29:20;;;;;;;;;;;18.90;99.90;;;;;;5072396;28;19908;-82
2022/09/14 05:31:46;;;;;;;;;;;18.80;99.90;;;;;;5073086;28;20039;-81
2022/09/14 05:34:12;;;;;;;;;;;18.70;99.90;;;;;;5073477;28;19912;-82
2022/09/14 05:36:38;;;;;;;;;;;18.70;99.90;;;;;;5073072;28;19909;-82
2022/09/14 05:39:04;;;;;;;;;;;18.70;99.90;;;;;;5072372;28;19908;-81
2022/09/14 05:41:30;;;;;;;;;;;18.60;99.90;;;;;;5072657;28;19908;-81
2022/09/14 05:43:57;;;;;;;;;;;18.50;99.90;;;;;;5073215;28;19915;-82
2022/09/14 05:46:22;;;;;;;;;;;18.50;99.90;;;;;;5072890;28;20401;-82
2022/09/14 05:48:50;;;;;;;;;;;18.50;99.90;;;;;;5073369;28;19936;-82
2022/09/14 05:51:20;;;;;;;;;;;18.50;99.90;;;;;;5073293;28;20399;-81
2022/09/14 05:53:49;;;;;;;;;;;18.50;99.90;;;;;;5073784;28;20010;-82
2022/09/14 05:56:14;;;;;;;;;;;18.50;99.90;;;;;;5073579;28;19958;-81
2022/09/14 05:58:41;;;;;;;;;;;18.50;99.90;;;;;;5074192;28;19909;-82
2022/09/14 06:01:10;;;;;;;;;;;18.40;99.90;;;;;;5073842;28;19960;-82
2022/09/14 06:03:36;;;;;;;;;;;18.30;99.90;;;;;;5074134;28;19936;-82
2022/09/14 06:06:03;;;;;;;;;;;18.30;99.90;;;;;;5073755;28;20326;-82
2022/09/14 06:08:29;;;;;;;;;;;18.20;99.90;;;;;;5073287;28;19909;-83
2022/09/14 06:10:54;;;;;;;;;;;18.20;99.90;;;;;;5073096;28;19965;-82
2022/09/14 06:13:22;;;;;;;;;;;18.20;99.90;;;;;;5074364;28;19913;-81
2022/09/14 06:15:47;;;;;;;;;;;18.20;99.90;;;;;;5074159;28;19912;-82
2022/09/14 06:18:13;;;;;;;;;;;18.20;99.90;;;;;;5074481;28;20398;-81
2022/09/14 06:20:39;;;;;;;;;;;18.20;99.90;;;;;;5075406;28;19969;-81
2022/09/14 06:23:04;;;;;;;;;;;18.20;99.90;;;;;;5076015;28;20314;-81
2022/09/14 06:25:30;;;;;;;;;;;18.20;99.90;;;;;;5078455;28;19957;-80
2022/09/14 06:27:55;;;;;;;;;;;18.10;99.90;;;;;;5076891;28;19991;-81
2022/09/14 06:30:21;;;;;;;;;;;18.10;99.90;;;;;;5076769;28;19958;-81
2022/09/14 06:32:46;;;;;;;;;;;18.10;99.90;;;;;;5075705;28;19955;-78
2022/09/14 06:35:12;;;;;;;;;;;18.10;99.90;;;;;;5075550;28;19936;-78
2022/09/14 06:37:37;;;;;;;;;;;18.10;99.90;;;;;;5074631;28;20285;-81
2022/09/14 06:40:03;;;;;;;;;;;18.10;99.90;;;;;;5074992;28;20241;-79
2022/09/14 06:42:29;;;;;;;;;;;18.10;99.90;;;;;;5074646;28;19915;-77
2022/09/14 06:44:55;;;;;;;;;;;18.00;99.90;;;;;;5075834;28;19913;-78
2022/09/14 06:47:20;;;;;;;;;;;18.00;99.90;;;;;;5074960;28;19931;-77
2022/09/14 06:49:48;;;;;;;;;;;18.00;99.90;;;;;;5076993;28;20336;-78
2022/09/14 06:52:14;;;;;;;;;;;18.00;99.90;;;;;;5077360;28;20371;-79
2022/09/14 06:54:39;;;;;;;;;;;18.00;99.90;;;;;;5076188;28;19912;-79
2022/09/14 06:57:05;;;;;;;;;;;18.00;99.90;;;;;;5075326;28;19913;-78
2022/09/14 06:59:30;;;;;;;;;;;18.00;99.90;;;;;;5074344;28;19916;-78
2022/09/14 07:01:56;;;;;;;;;;;18.00;99.90;;;;;;5074790;28;19916;-78
2022/09/14 07:04:22;;;;;;;;;;;18.00;99.90;;;;;;5075781;28;20003;-79
2022/09/14 07:06:48;;;;;;;;;;;18.00;99.90;;;;;;5073803;28;19920;-78
2022/09/14 07:09:15;;;;;;;;;;;18.00;99.90;;;;;;5073907;28;20357;-78
2022/09/14 07:11:40;;;;;;;;;;;18.00;99.90;;;;;;5074833;28;20330;-79
2022/09/14 07:14:06;;;;;;;;;;;18.00;99.90;;;;;;5074476;28;19939;-77
2022/09/14 07:16:33;;;;;;;;;;;18.00;99.90;;;;;;5074071;28;19954;-79
2022/09/14 07:19:02;;;;;;;;;;;18.00;99.90;;;;;;5074813;28;19908;-78
2022/09/14 07:21:28;;;;;;;;;;;18.00;99.90;;;;;;5074596;28;20371;-78
2022/09/14 07:23:57;;;;;;;;;;;18.00;99.90;;;;;;5076480;28;19908;-79
2022/09/14 07:26:24;;;;;;;;;;;18.10;99.90;;;;;;5074389;28;19908;-78
2022/09/14 07:28:51;;;;;;;;;;;18.10;99.90;;;;;;5074958;28;19955;-78
2022/09/14 07:31:19;;;;;;;;;;;18.10;99.90;;;;;;5074494;28;19909;-78
2022/09/14 07:33:45;;;;;;;;;;;18.20;99.90;;;;;;5074016;28;19916;-78
2022/09/14 07:36:11;;;;;;;;;;;18.20;99.90;;;;;;5072932;28;19916;-77
2022/09/14 07:38:37;;;;;;;;;;;18.10;99.90;;;;;;5073722;28;19930;-80
2022/09/14 07:41:03;;;;;;;;;;;18.20;99.90;;;;;;5072920;28;19951;-79
2022/09/14 07:43:29;;;;;;;;;;;18.20;99.90;;;;;;5072031;28;19954;-77
2022/09/14 07:45:54;;;;;;;;;;;18.20;99.90;;;;;;5072183;28;19912;-77
2022/09/14 07:48:20;;;;;;;;;;;18.20;99.90;;;;;;5058875;28;19948;-78
2022/09/14 07:50:46;;;;;;;;;;;18.20;99.90;;;;;;5053640;28;19975;-79
2022/09/14 07:53:12;;;;;;;;;;;18.20;99.90;;;;;;5056196;28;19909;-77
2022/09/14 07:55:38;;;;;;;;;;;18.10;99.90;;;;;;5058240;28;19972;-78
2022/09/14 07:58:03;;;;;;;;;;;18.20;99.90;;;;;;5059064;28;19916;-78
2022/09/14 08:00:29;;;;;;;;;;;18.20;99.90;;;;;;5058015;28;19908;-78
2022/09/14 08:02:56;;;;;;;;;;;18.20;99.90;;;;;;5058950;28;19913;-78
2022/09/14 08:05:22;;;;;;;;;;;18.20;99.90;;;;;;5057710;28;19917;-79
2022/09/14 08:07:52;;;;;;;;;;;18.20;99.90;;;;;;5058453;28;20437;-78
2022/09/14 08:10:17;;;;;;;;;;;18.20;99.90;;;;;;5059008;28;19916;-77
2022/09/14 08:12:43;;;;;;;;;;;18.10;99.90;;;;;;5057476;28;19954;-76
2022/09/14 08:15:09;;;;;;;;;;;18.20;99.90;;;;;;5058930;28;19963;-78
2022/09/14 08:17:34;;;;;;;;;;;18.20;99.90;;;;;;5055799;28;19909;-77
2022/09/14 08:20:00;;;;;;;;;;;18.20;99.90;;;;;;5055005;28;19913;-77
2022/09/14 08:22:26;;;;;;;;;;;18.20;99.90;;;;;;5056745;28;19917;-78
2022/09/14 08:24:51;;;;;;;;;;;18.20;99.90;;;;;;5056572;28;19976;-79
2022/09/14 08:27:17;;;;;;;;;;;18.20;99.90;;;;;;5057877;28;20359;-79
2022/09/14 08:29:42;;;;;;;;;;;18.20;99.90;;;;;;5056596;28;20187;-78
2022/09/14 08:32:10;;;;;;;;;;;18.20;99.90;;;;;;5057859;28;19916;-78
2022/09/14 08:34:35;;;;;;;;;;;18.20;99.90;;;;;;5056939;28;19920;-78
2022/09/14 08:37:01;;;;;;;;;;;18.30;99.90;;;;;;5056003;28;19962;-77
2022/09/14 08:39:26;;;;;;;;;;;18.30;99.90;;;;;;5053996;28;19909;-77
2022/09/14 08:41:53;;;;;;;;;;;18.30;99.90;;;;;;5054371;28;19916;-78
2022/09/14 08:44:22;;;;;;;;;;;18.20;99.90;;;;;;5054366;28;19908;-78
2022/09/14 08:46:48;;;;;;;;;;;18.30;99.90;;;;;;5054513;28;20291;-79
2022/09/14 08:49:17;;;;;;;;;;;18.20;99.90;;;;;;5053952;28;19908;-79
2022/09/14 08:51:43;;;;;;;;;;;18.20;99.90;;;;;;5054984;28;19913;-79
2022/09/14 08:54:09;;;;;;;;;;;18.20;99.90;;;;;;5058200;28;20326;-79
2022/09/14 08:56:37;;;;;;;;;;;18.20;99.90;;;;;;5056407;28;19928;-79
2022/09/14 08:59:02;;;;;;;;;;;18.20;99.90;;;;;;5055014;28;20011;-79
2022/09/14 09:01:28;;;;;;;;;;;18.20;99.90;;;;;;5056029;28;19952;-80
2022/09/14 09:04:17;;;;;;;;;;;18.20;99.90;;;;;;5054326;28;19970;-80
2022/09/14 09:06:43;;;;;;;;;;;18.30;99.90;;;;;;5056287;28;20370;-78
2022/09/14 09:09:08;;;;;;;;;;;18.30;99.90;;;;;;5054655;28;20075;-78
2022/09/14 09:11:42;;;;;;;;;;;18.30;99.90;;;;;;5055438;28;19924;-79
2022/09/14 09:14:28;;;;;;;;;;;18.30;99.90;;;;;;5054780;28;19916;-80
2022/09/14 09:16:55;;;;;;;;;;;18.30;99.90;;;;;;5044927;28;20264;-79
2022/09/14 09:19:25;;;;;;;;;;;18.30;99.90;;;;;;5054191;28;20355;-80
2022/09/14 09:21:51;;;;;;;;;;;18.30;99.90;;;;;;5055126;28;19908;-79
2022/09/14 09:24:23;;;;;;;;;;;18.40;99.90;;;;;;5064194;28;19912;-80
2022/09/14 09:26:49;;;;;;;;;;;18.40;99.90;;;;;;5071085;28;19944;-79
2022/09/14 09:29:15;;;;;;;;;;;18.40;99.90;;;;;;5053450;28;20035;-80
2022/09/14 09:31:47;;;;;;;;;;;18.50;99.90;;;;;;5054456;28;20407;-81
2022/09/14 09:34:14;;;;;;;;;;;18.50;99.90;;;;;;5070400;28;20379;-80
2022/09/14 09:36:40;;;;;;;;;;;18.60;99.90;;;;;;5054205;28;19952;-80
2022/09/14 09:39:06;;;;;;;;;;;18.60;99.90;;;;;;5053008;28;19909;-79
2022/09/14 09:41:55;;;;;;;;;;;18.60;99.90;;;;;;5053013;28;19909;-79
2022/09/14 09:44:21;;;;;;;;;;;18.60;99.90;;;;;;5063841;28;19909;-79
2022/09/14 09:46:49;;;;;;;;;;;18.60;99.90;;;;;;5072167;28;19909;-79
2022/09/14 09:49:16;;;;;;;;;;;18.60;99.90;;;;;;5071852;28;19954;-77
2022/09/14 09:51:42;;;;;;;;;;;18.60;99.90;;;;;;5073096;28;20389;-79
2022/09/14 09:54:11;;;;;;;;;;;18.60;99.90;;;;;;5073159;28;19963;-79
2022/09/14 09:56:39;;;;;;;;;;;18.70;99.90;;;;;;5074463;28;19931;-79
2022/09/14 09:59:20;;;;;;;;;;;18.60;99.90;;;;;;5074975;28;19913;-79
2022/09/14 10:01:45;;;;;;;;;;;18.60;99.90;;;;;;5074333;28;20363;-79
2022/09/14 10:04:15;;;;;;;;;;;18.50;99.90;;;;;;5075705;28;20004;-78
2022/09/14 10:06:42;;;;;;;;;;;18.50;99.90;;;;;;5073969;28;20308;-78
2022/09/14 10:09:13;;;;;;;;;;;18.40;99.90;;;;;;5072064;28;19916;-77
2022/09/14 10:11:38;;;;;;;;;;;18.50;99.90;;;;;;5058397;28;19916;-77
2022/09/14 10:14:05;;;;;;;;;;;18.50;99.90;;;;;;5061554;28;19935;-78
2022/09/14 10:16:39;;;;;;;;;;;18.50;99.90;;;;;;5060687;28;20344;-77
2022/09/14 10:19:12;;;;;;;;;;;18.50;99.90;;;;;;5051929;28;19939;-79
2022/09/14 10:21:58;;;;;;;;;;;18.40;99.90;;;;;;5051777;28;19908;-79
2022/09/14 10:24:23;;;;;;;;;;;18.30;99.90;;;;;;5059317;28;19913;-80
2022/09/14 10:26:49;;;;;;;;;;;18.30;99.90;;;;;;5062276;28;19909;-80
2022/09/14 10:29:27;;;;;;;;;;;18.30;99.90;;;;;;5060970;28;20400;-79
2022/09/14 10:31:55;;;;;;;;;;;18.30;99.90;;;;;;5058695;28;20539;-79
2022/09/14 10:34:21;;;;;;;;;;;18.20;99.90;;;;;;5058884;28;19913;-79
2022/09/14 10:36:52;;;;;;;;;;;18.30;99.90;;;;;;5059107;28;19909;-80
2022/09/14 10:39:30;;;;;;;;;;;18.40;99.90;;;;;;5056624;28;20393;-78
2022/09/14 10:41:59;;;;;;;;;;;18.40;99.90;;;;;;5056772;28;20497;-81
2022/09/14 10:44:37;;;;;;;;;;;18.50;99.90;;;;;;5057642;28;19920;-80
2022/09/14 10:47:08;;;;;;;;;;;18.50;99.90;;;;;;5054659;28;19916;-79
2022/09/14 10:49:50;;;;;;;;;;;18.60;99.90;;;;;;5055765;28;19909;-80
2022/09/14 10:52:19;;;;;;;;;;;18.70;99.90;;;;;;5056209;28;20023;-78
2022/09/14 10:54:53;;;;;;;;;;;18.70;99.90;;;;;;5055669;28;19920;-79
2022/09/14 10:57:19;;;;;;;;;;;18.60;99.90;;;;;;5055885;28;19988;-80
2022/09/14 10:59:49;;;;;;;;;;;18.60;99.90;;;;;;5057215;28;19967;-79
2022/09/14 11:02:24;;;;;;;;;;;18.60;99.90;;;;;;5056593;28;19927;-79
2022/09/14 11:05:19;;;;;;;;;;;18.50;99.90;;;;;;5052064;28;19920;-79
2022/09/14 11:07:50;;;;;;;;;;;18.50;99.90;;;;;;5043006;28;19917;-78
2022/09/14 11:10:26;;;;;;;;;;;18.50;99.90;;;;;;5147568;22;19928;-82
2022/09/14 11:12:55;;;;;;;;;;;18.60;99.90;;;;;;5071571;28;19915;-82
2022/09/14 11:15:27;;;;;;;;;;;18.70;99.90;;;;;;5070737;28;19962;-82
2022/09/14 11:17:59;;;;;;;;;;;18.80;99.90;;;;;;5071847;28;19912;-82
2022/09/14 11:20:41;;;;;;;;;;;18.80;99.90;;;;;;5072375;28;20363;-82
2022/09/14 11:23:12;;;;;;;;;;;18.80;99.90;;;;;;5073073;28;19916;-82
2022/09/14 11:25:38;;;;;;;;;;;18.80;99.90;;;;;;5075040;28;19988;-83
2022/09/14 11:28:05;;;;;;;;;;;18.80;99.90;;;;;;5080460;28;20358;-82
2022/09/14 11:30:43;;;;;;;;;;;18.90;99.90;;;;;;5081529;28;19935;-83
2022/09/14 11:33:12;;;;;;;;;;;18.80;99.90;;;;;;5080405;28;19955;-83
2022/09/14 11:35:44;;;;;;;;;;;18.80;99.90;;;;;;5080177;28;19915;-83
2022/09/14 11:38:20;;;;;;;;;;;18.80;99.90;;;;;;5079974;28;19920;-85
2022/09/14 11:40:50;;;;;;;;;;;18.90;99.90;;;;;;5080400;28;20384;-84
2022/09/14 11:43:19;;;;;;;;;;;19.00;99.90;;;;;;5081243;28;20291;-83
2022/09/14 11:45:58;;;;;;;;;;;19.00;99.90;;;;;;5079172;28;19991;-84
2022/09/14 11:48:23;;;;;;;;;;;19.10;99.90;;;;;;5080450;28;19916;-84
2022/09/14 11:50:52;;;;;;;;;;;19.30;99.90;;;;;;5079549;28;20295;-84
2022/09/14 11:53:18;;;;;;;;;;;19.40;99.90;;;;;;5076869;28;20325;-85
2022/09/14 11:55:45;;;;;;;;;;;19.40;99.90;;;;;;5077024;28;19915;-84
2022/09/14 11:58:18;;;;;;;;;;;19.40;99.90;;;;;;5076290;28;19915;-83
2022/09/14 12:00:57;;;;;;;;;;;19.40;99.90;;;;;;5076705;28;20002;-84
2022/09/14 12:03:42;;;;;;;;;;;19.40;99.90;;;;;;5076447;28;20380;-84
2022/09/14 12:06:26;;;;;;;;;;;19.30;99.90;;;;;;5074806;28;20296;-83
2022/09/14 12:08:52;;;;;;;;;;;19.40;99.90;;;;;;5075097;28;20329;-83
2022/09/14 12:11:25;;;;;;;;;;;19.40;99.90;;;;;;5073804;28;20004;-83
2022/09/14 12:14:09;;;;;;;;;;;19.50;99.90;;;;;;5073770;28;19912;-82
2022/09/14 12:16:55;;;;;;;;;;;19.50;99.90;;;;;;5073383;28;19943;-83
2022/09/14 12:19:20;;;;;;;;;;;19.40;99.90;;;;;;5073866;28;19908;-83
2022/09/14 12:21:46;;;;;;;;;;;19.40;99.90;;;;;;5091296;28;19958;-84
2022/09/14 12:24:14;;;;;;;;;;;19.40;99.90;;;;;;5055250;28;19916;-84
2022/09/14 12:26:40;;;;;;;;;;;19.30;99.90;;;;;;5055514;28;19916;-83
2022/09/14 12:29:24;;;;;;;;;;;19.30;99.90;;;;;;5057535;28;19909;-84
2022/09/14 12:31:50;;;;;;;;;;;19.40;99.90;;;;;;5056424;28;20628;-84
2022/09/14 12:34:22;;;;;;;;;;;19.40;99.90;;;;;;5057920;28;19966;-84
2022/09/14 12:36:47;;;;;;;;;;;19.30;99.90;;;;;;5055932;28;20003;-86
2022/09/14 12:39:16;;;;;;;;;;;19.30;99.90;;;;;;5071034;28;20023;-84
2022/09/14 12:41:56;;;;;;;;;;;19.30;99.90;;;;;;5072093;28;19909;-86
2022/09/14 12:44:39;;;;;;;;;;;19.40;99.90;;;;;;5074435;28;19959;-84
2022/09/14 12:47:23;;;;;;;;;;;19.40;99.90;;;;;;5057944;28;19917;-84
2022/09/14 12:49:48;;;;;;;;;;;19.50;99.90;;;;;;5059216;28;19908;-85
2022/09/14 12:52:36;;;;;;;;;;;19.50;99.90;;;;;;5056365;28;19909;-84
2022/09/14 12:55:21;;;;;;;;;;;19.50;99.90;;;;;;5059241;28;20015;-83
2022/09/14 12:57:46;;;;;;;;;;;19.50;99.90;;;;;;5074488;28;19976;-84
2022/09/14 13:00:14;;;;;;;;;;;19.60;99.90;;;;;;5073104;28;19932;-84
2022/09/14 13:02:58;;;;;;;;;;;19.70;99.90;;;;;;5058548;28;20291;-83
2022/09/14 13:05:25;;;;;;;;;;;19.70;99.90;;;;;;5055269;28;19917;-81
2022/09/14 13:07:52;;;;;;;;;;;19.60;99.90;;;;;;5054491;28;20288;-84
2022/09/14 13:10:17;;;;;;;;;;;19.60;99.90;;;;;;5054027;28;19921;-84
2022/09/14 13:12:44;;;;;;;;;;;19.60;99.90;;;;;;5069998;28;19909;-84
2022/09/14 13:15:23;;;;;;;;;;;19.60;99.90;;;;;;5055220;28;20303;-84
2022/09/14 13:18:07;;;;;;;;;;;19.60;99.90;;;;;;5052529;28;19998;-84
2022/09/14 13:20:34;;;;;;;;;;;19.60;99.90;;;;;;5069440;28;20015;-83
2022/09/14 13:22:59;;;;;;;;;;;19.40;99.90;;;;;;5052756;28;19913;-84
2022/09/14 13:25:28;;;;;;;;;;;19.20;99.90;;;;;;5062029;28;19915;-82
2022/09/14 13:27:54;;;;;;;;;;;19.20;99.90;;;;;;5071671;28;20342;-82
2022/09/14 13:30:21;;;;;;;;;;;19.10;99.90;;;;;;5055167;28;19909;-82
2022/09/14 13:33:15;;;;;;;;;;;19.00;99.90;;;;;;5074283;28;19913;-84
2022/09/14 13:36:01;;;;;;;;;;;18.90;99.90;;;;;;5057219;28;20279;-84
2022/09/14 13:38:31;;;;;;;;;;;18.70;99.90;;;;;;5062712;28;19916;-83
2022/09/14 13:41:03;;;;;;;;;;;18.70;99.90;;;;;;5062804;28;19909;-83
2022/09/14 13:43:29;;;;;;;;;;;18.50;99.90;;;;;;5056377;28;19996;-83
2022/09/14 13:45:57;;;;;;;;;;;18.40;99.90;;;;;;5060650;28;19940;-81
2022/09/14 13:51:34;;;;;;;;;;;18.40;99.90;;;;;;5083947;28;19919;-82
2022/09/14 13:54:16;;;;;;;;;;;18.40;99.90;;;;;;5092973;28;19983;-84
2022/09/14 13:57:14;;;;;;;;;;;18.40;99.90;;;;;;5095770;28;19917;-81
2022/09/14 13:59:59;;;;;;;;;;;18.30;99.90;;;;;;5095735;28;20007;-84
2022/09/14 14:02:28;;;;;;;;;;;18.30;99.90;;;;;;5093026;28;19935;-84
2022/09/14 14:05:04;;;;;;;;;;;18.30;99.90;;;;;;5080581;28;19916;-83
2022/09/14 14:07:52;;;;;;;;;;;18.30;99.90;;;;;;5083316;28;19916;-84
2022/09/14 14:10:37;;;;;;;;;;;18.30;99.90;;;;;;5088231;28;19920;-84
2022/09/14 14:22:34;;;;;;;;;;;17.80;99.90;;;;;;5032245;28;20093;-84
2022/09/14 14:25:18;;;;;;;;;;;17.80;99.90;;;;;;5071238;28;19908;-86
2022/09/14 14:27:59;;;;;;;;;;;;;;;;;;;;;
2022/09/14 14:30:27;;;;;;;;;;;17.80;99.90;;;;;;5072572;28;19912;-86
2022/09/14 14:32:53;;;;;;;;;;;17.80;99.90;;;;;;5072097;28;20370;-86
2022/09/14 14:35:21;;;;;;;;;;;17.80;99.90;;;;;;5070972;28;19959;-86
2022/09/14 14:37:47;;;;;;;;;;;17.90;99.90;;;;;;5072352;28;19908;-85
2022/09/14 14:40:13;;;;;;;;;;;18.00;99.90;;;;;;5070573;28;19909;-85
2022/09/14 14:42:39;;;;;;;;;;;18.00;99.90;;;;;;5070358;28;19916;-86